createdAt,value
2023-02-11T00:00:40.562Z,12.27
2023-02-11T00:03:08.881Z,12.07
2023-02-11T00:05:36.775Z,13.80
2023-02-11T00:08:05.022Z,13.60
2023-02-11T00:10:32.931Z,13.37
2023-02-11T00:13:00.858Z,12.40
2023-02-11T00:15:28.762Z,12.57
2023-02-11T00:17:58.006Z,12.63
2023-02-11T00:20:25.941Z,13.67
2023-02-11T00:22:53.855Z,13.33
2023-02-11T00:25:21.850Z,12.83
2023-02-11T00:27:49.765Z,14.20
2023-02-11T00:30:17.860Z,13.90
2023-02-11T00:32:45.866Z,12.20
2023-02-11T00:35:15.194Z,12.63
2023-02-11T00:37:43.099Z,14.43
2023-02-11T00:40:12.322Z,12.50
2023-02-11T00:42:40.812Z,14.27
2023-02-11T00:45:09.874Z,14.13
2023-02-11T00:47:37.793Z,14.23
2023-02-11T00:50:07.638Z,12.70
2023-02-11T00:52:36.934Z,13.20
2023-02-11T00:55:05.055Z,14.63
2023-02-11T00:57:32.944Z,13.77
2023-02-11T01:00:00.882Z,12.17
2023-02-11T01:02:28.845Z,13.07
2023-02-11T01:04:56.788Z,12.57
2023-02-11T01:07:24.704Z,13.17
2023-02-11T01:09:54.109Z,14.13
2023-02-11T01:12:22.376Z,13.67
2023-02-11T01:14:50.327Z,14.17
2023-02-11T01:17:18.256Z,15.23
2023-02-11T01:19:46.252Z,12.93
2023-02-11T01:22:14.303Z,13.83
2023-02-11T01:24:42.247Z,13.60
2023-02-11T01:27:11.539Z,14.33
2023-02-11T01:29:39.440Z,13.67
2023-02-11T01:32:07.384Z,13.67
2023-02-11T01:34:35.312Z,13.50
2023-02-11T01:37:03.219Z,12.67
2023-02-11T01:39:34.150Z,13.90
2023-02-11T01:42:02.632Z,14.33
2023-02-11T01:44:33.480Z,14.17
2023-02-11T01:47:01.767Z,11.40
2023-02-11T01:49:32.778Z,13.00
2023-02-11T01:52:03.372Z,13.57
2023-02-11T01:54:51.536Z,13.67
2023-02-11T01:57:25.018Z,13.60
2023-02-11T02:00:01.379Z,13.03
2023-02-11T02:02:34.372Z,12.83
2023-02-11T02:05:07.300Z,13.10
2023-02-11T02:07:38.440Z,13.10
2023-02-11T02:10:11.329Z,13.17
2023-02-11T02:12:39.220Z,12.13
2023-02-11T02:15:20.656Z,11.27
2023-02-11T02:17:55.760Z,11.53
2023-02-11T02:20:56.908Z,10.90
2023-02-11T02:23:38.533Z,13.07
2023-02-11T02:26:27.457Z,11.40
2023-02-11T02:29:30.932Z,11.20
2023-02-11T02:32:22.699Z,11.20
2023-02-11T02:34:52.683Z,11.07
2023-02-11T02:37:24.688Z,11.53
2023-02-11T02:39:52.588Z,11.23
2023-02-11T02:42:21.664Z,11.87
2023-02-11T02:44:50.372Z,11.23
2023-02-11T02:47:18.272Z,10.77
2023-02-11T02:49:47.561Z,11.37
2023-02-11T02:52:30.934Z,11.40
2023-02-11T02:55:13.527Z,9.97
2023-02-11T02:57:53.808Z,10.77
2023-02-11T03:00:25.783Z,10.50
2023-02-11T03:03:04.456Z,9.97
2023-02-11T03:05:41.140Z,9.77
2023-02-11T03:08:11.517Z,9.63
2023-02-11T03:10:41.901Z,9.80
2023-02-11T03:13:10.362Z,9.87
2023-02-11T03:15:40.641Z,10.13
2023-02-11T03:18:11.250Z,9.37
2023-02-11T03:20:42.714Z,9.80
2023-02-11T03:23:14.889Z,9.57
2023-02-11T03:25:47.326Z,9.20
2023-02-11T03:28:19.161Z,8.57
2023-02-11T03:30:51.489Z,9.10
2023-02-11T03:33:22.825Z,9.70
2023-02-11T03:35:54.767Z,9.43
2023-02-11T03:38:24.531Z,8.07
2023-02-11T03:40:52.774Z,9.73
2023-02-11T03:43:23.463Z,8.73
2023-02-11T03:45:53.404Z,8.67
2023-02-11T03:48:24.680Z,8.33
2023-02-11T03:50:55.246Z,8.93
2023-02-11T03:53:24.351Z,8.67
2023-02-11T03:55:53.704Z,8.87
2023-02-11T03:58:21.607Z,8.57
2023-02-11T04:00:50.435Z,9.23
2023-02-11T04:03:19.141Z,8.83
2023-02-11T04:05:47.206Z,9.20
2023-02-11T04:08:16.678Z,8.73
2023-02-11T04:10:44.581Z,7.63
2023-02-11T04:13:12.512Z,9.10
2023-02-11T04:15:40.399Z,8.07
2023-02-11T04:18:08.356Z,7.57
2023-02-11T04:20:36.247Z,8.37
2023-02-11T04:23:04.221Z,8.33
2023-02-11T04:25:33.513Z,8.80
2023-02-11T04:28:01.438Z,8.93
2023-02-11T04:30:29.397Z,8.27
2023-02-11T04:32:57.291Z,6.87
2023-02-11T04:35:25.190Z,8.40
2023-02-11T04:37:53.111Z,8.57
2023-02-11T04:40:21.206Z,8.23
2023-02-11T04:42:50.483Z,7.00
2023-02-11T04:45:18.413Z,7.60
2023-02-11T04:47:46.284Z,9.17
2023-02-11T04:50:14.198Z,7.63
2023-02-11T04:52:42.108Z,7.57
2023-02-11T04:55:10.046Z,6.67
2023-02-11T04:57:37.965Z,7.07
2023-02-11T05:00:09.950Z,7.03
2023-02-11T05:02:37.875Z,7.73
2023-02-11T05:05:06.572Z,7.20
2023-02-11T05:07:34.613Z,7.37
2023-02-11T05:10:02.530Z,7.90
2023-02-11T05:12:30.456Z,7.43
2023-02-11T05:14:58.344Z,7.33
2023-02-11T05:17:27.699Z,7.93
2023-02-11T05:19:55.599Z,7.33
2023-02-11T05:22:23.493Z,7.10
2023-02-11T05:24:51.467Z,7.80
2023-02-11T05:27:19.367Z,7.17
2023-02-11T05:29:47.314Z,6.97
2023-02-11T05:32:15.212Z,7.17
2023-02-11T05:34:44.488Z,6.87
2023-02-11T05:37:12.430Z,7.57
2023-02-11T05:39:40.325Z,6.57
2023-02-11T05:42:08.376Z,7.67
2023-02-11T05:44:36.274Z,7.37
2023-02-11T05:47:04.428Z,7.93
2023-02-11T05:49:32.358Z,6.97
2023-02-11T05:52:01.691Z,7.37
2023-02-11T05:54:29.616Z,7.13
2023-02-11T05:56:57.495Z,6.90
2023-02-11T05:59:25.404Z,7.50
2023-02-11T06:01:53.323Z,8.77
2023-02-11T06:04:21.255Z,7.93
2023-02-11T06:06:49.157Z,7.93
2023-02-11T06:09:18.451Z,7.10
2023-02-11T06:11:46.380Z,8.60
2023-02-11T06:14:14.535Z,8.40
2023-02-11T06:16:42.496Z,7.60
2023-02-11T06:19:10.434Z,7.03
2023-02-11T06:21:43.939Z,6.47
2023-02-11T06:24:13.804Z,8.37
2023-02-11T06:26:43.155Z,7.57
2023-02-11T06:29:11.113Z,7.00
2023-02-11T06:31:39.855Z,8.63
2023-02-11T06:34:08.005Z,7.73
2023-02-11T06:36:36.214Z,7.57
2023-02-11T06:39:04.486Z,7.10
2023-02-11T06:41:32.430Z,7.20
2023-02-11T06:44:01.747Z,7.03
2023-02-11T06:46:29.677Z,8.97
2023-02-11T06:48:57.738Z,7.83
2023-02-11T06:51:25.774Z,7.97
2023-02-11T06:53:53.696Z,7.73
2023-02-11T06:56:22.914Z,8.30
2023-02-11T06:58:53.686Z,7.03
2023-02-11T07:01:23.819Z,7.63
2023-02-11T07:03:52.153Z,8.37
2023-02-11T07:06:21.480Z,7.97
2023-02-11T07:08:49.764Z,8.13
2023-02-11T07:11:20.652Z,7.60
2023-02-11T07:13:49.109Z,8.00
2023-02-11T07:16:18.773Z,8.10
2023-02-11T07:18:49.099Z,7.57
2023-02-11T07:21:19.382Z,8.50
2023-02-11T07:23:48.375Z,6.87
2023-02-11T07:26:18.562Z,7.83
2023-02-11T07:28:46.781Z,7.97
2023-02-11T07:31:16.827Z,7.10
2023-02-11T07:33:45.979Z,7.30
2023-02-11T07:36:16.567Z,7.60
2023-02-11T07:38:44.667Z,9.50
2023-02-11T07:41:14.116Z,7.77
2023-02-11T07:43:42.554Z,7.87
2023-02-11T07:46:12.299Z,8.03
2023-02-11T07:48:40.253Z,8.80
2023-02-11T07:51:09.617Z,8.67
2023-02-11T07:53:39.540Z,8.93
2023-02-11T07:56:08.585Z,8.50
2023-02-11T07:58:36.831Z,8.73
2023-02-11T08:01:06.062Z,8.70
2023-02-11T08:03:34.674Z,7.27
2023-02-11T08:06:04.837Z,8.00
2023-02-11T08:08:32.800Z,7.83
2023-02-11T08:11:07.651Z,8.20
2023-02-11T08:13:35.796Z,7.63
2023-02-11T08:16:04.181Z,8.00
2023-02-11T08:18:32.148Z,8.47
2023-02-11T08:21:05.556Z,8.20
2023-02-11T08:23:33.464Z,8.80
2023-02-11T08:26:04.644Z,7.60
2023-02-11T08:28:32.634Z,8.67
2023-02-11T08:31:06.617Z,8.03
2023-02-11T08:33:34.716Z,7.80
2023-02-11T08:36:03.795Z,7.63
2023-02-11T08:38:31.820Z,8.40
2023-02-11T08:41:01.025Z,8.10
2023-02-11T08:43:30.320Z,8.00
2023-02-11T08:46:00.719Z,8.77
2023-02-11T08:48:30.033Z,7.70
2023-02-11T08:50:58.263Z,8.53
2023-02-11T08:53:26.247Z,13.17
2023-02-11T08:55:55.568Z,9.70
2023-02-11T08:58:23.991Z,8.17
2023-02-11T09:00:53.794Z,9.17
2023-02-11T09:03:22.019Z,8.83
2023-02-11T09:05:53.173Z,8.90
2023-02-11T09:08:21.844Z,9.20
2023-02-11T09:10:50.232Z,8.53
2023-02-11T09:13:18.374Z,8.27
2023-02-11T09:15:46.880Z,9.03
2023-02-11T09:18:16.263Z,9.20
2023-02-11T09:20:44.152Z,9.33
2023-02-11T09:23:12.595Z,8.70
2023-02-11T09:25:41.215Z,9.90
2023-02-11T09:28:09.348Z,13.90
2023-02-11T09:30:37.844Z,10.77
2023-02-11T09:33:05.896Z,8.37
2023-02-11T09:35:35.909Z,9.43
2023-02-11T09:38:03.827Z,9.00
2023-02-11T09:40:31.845Z,8.53
2023-02-11T09:43:05.672Z,7.80
2023-02-11T09:45:33.737Z,9.40
2023-02-11T09:48:05.882Z,8.40
2023-02-11T09:50:37.200Z,10.13
2023-02-11T09:53:07.992Z,8.43
2023-02-11T09:55:39.523Z,8.93
2023-02-11T09:58:13.624Z,8.37
2023-02-11T10:00:44.617Z,7.17
2023-02-11T10:03:28.189Z,8.00
2023-02-11T10:06:21.635Z,7.17
2023-02-11T10:09:00.655Z,7.30
2023-02-11T10:11:34.691Z,7.20
2023-02-11T10:14:12.792Z,7.03
2023-02-11T10:16:53.511Z,7.70
2023-02-11T10:19:32.006Z,7.60
2023-02-11T10:22:09.144Z,6.50
2023-02-11T10:24:37.293Z,5.30
2023-02-11T10:27:13.868Z,6.20
2023-02-11T10:29:44.871Z,6.63
2023-02-11T10:32:17.371Z,6.47
2023-02-11T10:34:45.301Z,7.07
2023-02-11T10:37:14.996Z,5.73
2023-02-11T10:39:42.961Z,6.30
2023-02-11T10:42:13.554Z,5.63
2023-02-11T10:44:45.220Z,5.57
2023-02-11T10:47:15.780Z,7.07
2023-02-11T10:49:44.709Z,5.83
2023-02-11T10:52:25.535Z,6.50
2023-02-11T10:55:06.079Z,6.23
2023-02-11T10:57:38.690Z,6.53
2023-02-11T11:00:22.131Z,5.73
2023-02-11T11:02:55.922Z,7.10
2023-02-11T11:05:29.887Z,6.23
2023-02-11T11:08:01.265Z,7.13
2023-02-11T11:10:43.632Z,7.20
2023-02-11T11:13:32.122Z,5.80
2023-02-11T11:16:25.071Z,6.43
2023-02-11T11:18:54.356Z,7.10
2023-02-11T11:21:24.738Z,7.00
2023-02-11T11:23:59.286Z,5.63
2023-02-11T11:26:28.729Z,6.17
2023-02-11T11:29:02.362Z,5.43
2023-02-11T11:31:33.300Z,6.30
2023-02-11T11:34:03.017Z,6.57
2023-02-11T11:36:36.440Z,5.17
2023-02-11T11:39:18.955Z,4.17
2023-02-11T11:41:54.671Z,4.67
2023-02-11T11:44:31.672Z,4.70
2023-02-11T11:47:20.868Z,5.03
2023-02-11T11:49:52.986Z,4.10
2023-02-11T11:52:30.032Z,5.20
2023-02-11T11:55:03.664Z,5.73
2023-02-11T11:57:32.764Z,3.80
2023-02-11T12:00:00.717Z,8.63
2023-02-11T12:02:52.234Z,6.43
2023-02-11T12:05:24.723Z,5.13
2023-02-11T12:08:02.024Z,4.77
2023-02-11T12:10:50.037Z,5.77
2023-02-11T12:13:27.776Z,5.90
2023-02-11T12:16:01.664Z,9.27
2023-02-11T12:18:47.533Z,4.57
2023-02-11T12:21:36.347Z,4.93
2023-02-11T12:24:23.865Z,3.67
2023-02-11T12:26:58.180Z,4.30
2023-02-11T12:29:33.451Z,4.07
2023-02-11T12:32:11.770Z,5.47
2023-02-11T12:34:59.116Z,5.33
2023-02-11T12:37:36.447Z,4.30
2023-02-11T12:40:14.386Z,5.23
2023-02-11T12:43:09.810Z,3.77
2023-02-11T12:46:02.567Z,5.10
2023-02-11T12:48:41.787Z,5.33
2023-02-11T12:51:19.772Z,4.60
2023-02-11T12:54:05.887Z,3.53
2023-02-11T12:56:39.713Z,2.50
2023-02-11T12:59:14.569Z,3.20
2023-02-11T13:01:43.897Z,2.40
2023-02-11T13:04:18.643Z,2.20
2023-02-11T13:06:50.541Z,2.30
2023-02-11T13:09:21.299Z,2.87
2023-02-11T13:11:52.827Z,2.47
2023-02-11T13:14:27.214Z,2.70
2023-02-11T13:16:55.738Z,3.20
2023-02-11T13:19:27.831Z,2.63
2023-02-11T13:22:06.644Z,4.87
2023-02-11T13:24:41.637Z,3.53
2023-02-11T13:27:16.525Z,3.47
2023-02-11T13:30:20.449Z,4.37
2023-02-11T13:33:06.600Z,3.30
2023-02-11T13:35:35.926Z,3.37
2023-02-11T13:38:05.031Z,3.17
2023-02-11T13:40:35.150Z,3.10
2023-02-11T13:43:05.058Z,3.27
2023-02-11T13:45:38.370Z,3.20
2023-02-11T13:48:08.282Z,4.20
2023-02-11T13:50:39.595Z,3.70
2023-02-11T13:53:08.752Z,4.17
2023-02-11T13:55:36.871Z,5.43
2023-02-11T13:58:18.709Z,4.03
2023-02-11T14:00:50.920Z,5.23
2023-02-11T14:03:45.553Z,4.00
2023-02-11T14:06:37.103Z,4.10
2023-02-11T14:09:39.338Z,3.83
2023-02-11T14:12:32.157Z,4.73
2023-02-11T14:15:21.676Z,5.30
2023-02-11T14:17:52.465Z,2.63
2023-02-11T14:20:36.582Z,4.53
2023-02-11T14:23:05.375Z,4.70
2023-02-11T14:25:33.484Z,4.40
2023-02-11T14:28:05.362Z,3.33
2023-02-11T14:30:47.351Z,4.00
2023-02-11T14:33:42.124Z,2.93
2023-02-11T14:36:21.254Z,4.03
2023-02-11T14:39:00.013Z,4.77
2023-02-11T14:41:29.367Z,4.37
2023-02-11T14:43:59.806Z,3.53
2023-02-11T14:46:30.174Z,3.13
2023-02-11T14:49:01.061Z,5.53
2023-02-11T14:51:31.277Z,4.77
2023-02-11T14:54:00.656Z,3.67
2023-02-11T14:56:31.532Z,4.43
2023-02-11T14:58:59.717Z,3.40
2023-02-11T15:01:31.279Z,3.57
2023-02-11T15:04:01.399Z,3.33
2023-02-11T15:06:31.605Z,5.17
2023-02-11T15:09:01.908Z,3.33
2023-02-11T15:11:32.851Z,2.90
2023-02-11T15:14:08.562Z,3.40
2023-02-11T15:16:42.109Z,2.70
2023-02-11T15:19:21.091Z,3.00
2023-02-11T15:21:50.598Z,2.73
2023-02-11T15:24:27.535Z,3.97
2023-02-11T15:27:00.263Z,4.00
2023-02-11T15:29:29.396Z,3.57
2023-02-11T15:32:08.709Z,3.63
2023-02-11T15:34:38.211Z,3.00
2023-02-11T15:37:06.580Z,2.83
2023-02-11T15:39:36.658Z,2.87
2023-02-11T15:42:18.743Z,2.97
2023-02-11T15:44:50.527Z,3.20
2023-02-11T15:47:22.993Z,2.73
2023-02-11T15:49:52.312Z,3.57
2023-02-11T15:52:25.049Z,3.17
2023-02-11T15:54:53.723Z,3.23
2023-02-11T15:57:23.018Z,2.50
2023-02-11T15:59:52.883Z,2.90
2023-02-11T16:02:29.831Z,3.40
2023-02-11T16:05:00.120Z,3.53
2023-02-11T16:07:46.063Z,3.50
2023-02-11T16:10:25.825Z,3.20
2023-02-11T16:12:55.846Z,4.70
2023-02-11T16:15:50.746Z,2.93
2023-02-11T16:18:37.362Z,3.10
2023-02-11T16:21:09.520Z,3.63
2023-02-11T16:23:39.587Z,2.77
2023-02-11T16:26:11.557Z,3.47
2023-02-11T16:28:39.729Z,2.70
2023-02-11T16:31:07.861Z,3.13
2023-02-11T16:33:35.836Z,3.23
2023-02-11T16:36:13.020Z,3.23
2023-02-11T16:38:41.275Z,3.03
2023-02-11T16:41:11.856Z,3.33
2023-02-11T16:43:40.009Z,3.70
2023-02-11T16:46:09.382Z,2.90
2023-02-11T16:48:37.339Z,2.90
2023-02-11T16:51:05.452Z,3.17
2023-02-11T16:53:34.733Z,3.17
2023-02-11T16:56:02.647Z,4.07
2023-02-11T16:58:30.549Z,3.70
2023-02-11T17:00:58.781Z,3.60
2023-02-11T17:03:29.837Z,3.90
2023-02-11T17:05:58.017Z,3.20
2023-02-11T17:08:25.964Z,3.10
2023-02-11T17:10:55.263Z,4.10
2023-02-11T17:13:23.160Z,3.37
2023-02-11T17:15:51.437Z,2.70
2023-02-11T17:18:19.514Z,2.77
2023-02-11T17:20:47.588Z,2.53
2023-02-11T17:23:15.512Z,4.70
2023-02-11T17:25:43.476Z,4.00
2023-02-11T17:28:13.124Z,3.50
2023-02-11T17:30:43.591Z,2.93
2023-02-11T17:33:11.539Z,3.70
2023-02-11T17:35:41.543Z,3.80
2023-02-11T17:38:09.444Z,4.60
2023-02-11T17:40:37.340Z,3.87
2023-02-11T17:43:05.634Z,4.07
2023-02-11T17:45:37.644Z,5.00
2023-02-11T17:48:05.780Z,3.70
2023-02-11T17:50:37.051Z,4.27
2023-02-11T17:53:05.081Z,3.67
2023-02-11T17:55:34.292Z,3.57
2023-02-11T17:58:02.356Z,3.30
2023-02-11T18:00:30.268Z,2.90
2023-02-11T18:03:02.789Z,4.43
2023-02-11T18:05:35.287Z,2.80
2023-02-11T18:08:03.447Z,4.00
2023-02-11T18:10:31.751Z,4.20
2023-02-11T18:12:59.651Z,5.40
2023-02-11T18:15:27.906Z,3.90
2023-02-11T18:17:56.602Z,4.40
2023-02-11T18:20:25.914Z,3.80
2023-02-11T18:22:53.829Z,4.00
2023-02-11T18:25:21.839Z,3.30
2023-02-11T18:27:49.753Z,3.93
2023-02-11T18:30:20.282Z,3.73
2023-02-11T18:32:48.336Z,3.33
2023-02-11T18:35:16.343Z,2.40
2023-02-11T18:37:45.656Z,3.20
2023-02-11T18:40:14.090Z,3.00
2023-02-11T18:42:42.886Z,3.37
2023-02-11T18:45:13.263Z,3.40
2023-02-11T18:47:41.922Z,3.87
2023-02-11T18:50:13.804Z,3.87
2023-02-11T18:52:41.880Z,4.10
2023-02-11T18:55:11.315Z,3.80
2023-02-11T18:57:39.237Z,3.53
2023-02-11T19:00:10.108Z,3.80
2023-02-11T19:02:38.059Z,5.70
2023-02-11T19:05:06.969Z,3.60
2023-02-11T19:07:34.944Z,5.23
2023-02-11T19:10:02.920Z,4.37
2023-02-11T19:12:33.176Z,4.30
2023-02-11T19:15:01.611Z,4.27
2023-02-11T19:17:29.553Z,5.20
2023-02-11T19:19:57.427Z,4.57
2023-02-11T19:22:25.321Z,4.00
2023-02-11T19:24:53.232Z,4.07
2023-02-11T19:27:21.140Z,3.83
2023-02-11T19:29:50.499Z,4.87
2023-02-11T19:32:18.417Z,3.83
2023-02-11T19:34:46.299Z,3.50
2023-02-11T19:37:14.388Z,4.63
2023-02-11T19:39:42.854Z,3.77
2023-02-11T19:42:36.571Z,3.87
2023-02-11T19:45:07.391Z,4.43
2023-02-11T19:47:35.332Z,4.13
2023-02-11T19:50:03.444Z,4.77
2023-02-11T19:52:31.339Z,4.17
2023-02-11T19:54:59.240Z,5.70
2023-02-11T19:57:27.250Z,4.70
2023-02-11T19:59:56.958Z,5.17
2023-02-11T20:02:26.351Z,5.10
2023-02-11T20:04:54.332Z,3.33
2023-02-11T20:07:22.235Z,4.07
2023-02-11T20:09:50.141Z,4.90
2023-02-11T20:12:18.060Z,4.50
2023-02-11T20:14:45.961Z,4.40
2023-02-11T20:17:13.933Z,5.90
2023-02-11T20:19:43.243Z,4.17
2023-02-11T20:22:11.246Z,4.57
2023-02-11T20:24:39.160Z,4.27
2023-02-11T20:27:08.495Z,4.73
2023-02-11T20:29:36.470Z,4.97
2023-02-11T20:32:04.874Z,5.17
2023-02-11T20:34:33.319Z,4.53
2023-02-11T20:37:04.186Z,5.00
2023-02-11T20:39:32.095Z,4.83
2023-02-11T20:42:00.013Z,4.67
2023-02-11T20:44:28.133Z,5.03
2023-02-11T20:46:56.029Z,5.60
2023-02-11T20:49:25.380Z,5.83
2023-02-11T20:51:53.961Z,4.73
2023-02-11T20:54:24.476Z,4.60
2023-02-11T20:56:53.935Z,3.60
2023-02-11T20:59:22.254Z,4.37
2023-02-11T21:01:53.440Z,4.83
2023-02-11T21:04:23.913Z,5.43
2023-02-11T21:06:54.194Z,4.57
2023-02-11T21:09:25.453Z,4.53
2023-02-11T21:11:54.527Z,5.17
2023-02-11T21:14:23.417Z,5.23
2023-02-11T21:16:52.457Z,5.97
2023-02-11T21:19:20.460Z,4.73
2023-02-11T21:21:48.380Z,5.30
2023-02-11T21:24:16.533Z,5.37
2023-02-11T21:26:45.843Z,4.00
2023-02-11T21:29:13.786Z,3.83
2023-02-11T21:31:41.840Z,4.67
2023-02-11T21:34:11.009Z,4.47
2023-02-11T21:36:38.953Z,7.67
2023-02-11T21:39:47.364Z,4.40
2023-02-11T21:42:16.831Z,7.37
2023-02-11T21:45:10.802Z,7.20
2023-02-11T21:47:38.711Z,6.63
2023-02-11T21:50:07.585Z,7.30
2023-02-11T21:52:35.519Z,8.03
2023-02-11T21:55:03.483Z,7.50
2023-02-11T21:57:32.795Z,6.17
2023-02-11T22:00:00.744Z,7.83
2023-02-11T22:02:28.695Z,6.00
2023-02-11T22:04:56.645Z,6.00
2023-02-11T22:07:25.104Z,6.03
2023-02-11T22:09:54.742Z,6.03
2023-02-11T22:12:22.709Z,6.17
2023-02-11T22:14:52.043Z,6.27
2023-02-11T22:17:20.015Z,11.70
2023-02-11T22:19:47.951Z,5.07
2023-02-11T22:22:18.285Z,5.87
2023-02-11T22:24:46.978Z,6.53
2023-02-11T22:27:14.984Z,5.77
2023-02-11T22:29:42.931Z,5.57
2023-02-11T22:32:12.319Z,4.70
2023-02-11T22:34:40.336Z,6.53
2023-02-11T22:37:08.616Z,5.17
2023-02-11T22:39:36.505Z,6.07
2023-02-11T22:42:04.602Z,7.13
2023-02-11T22:44:32.480Z,6.03
2023-02-11T22:47:00.387Z,3.90
2023-02-11T22:49:32.440Z,9.67
2023-02-11T22:52:00.482Z,7.07
2023-02-11T22:54:28.557Z,8.60
2023-02-11T22:56:56.433Z,6.63
2023-02-11T22:59:24.389Z,5.87
2023-02-11T23:01:52.454Z,5.30
2023-02-11T23:04:20.970Z,5.17
2023-02-11T23:06:50.524Z,3.33
2023-02-11T23:09:18.492Z,5.80
2023-02-11T23:11:46.956Z,4.17
2023-02-11T23:14:14.876Z,3.57
2023-02-11T23:16:42.984Z,3.30
2023-02-11T23:19:12.380Z,3.93
2023-02-11T23:21:41.014Z,4.77
2023-02-11T23:24:14.369Z,3.70
2023-02-11T23:26:43.142Z,3.03
2023-02-11T23:29:11.299Z,4.43
2023-02-11T23:31:43.417Z,5.10
2023-02-11T23:34:11.476Z,3.30
2023-02-11T23:36:39.622Z,5.50
2023-02-11T23:39:07.587Z,2.60
2023-02-11T23:41:36.840Z,3.43
2023-02-11T23:44:04.812Z,3.13
2023-02-11T23:46:32.734Z,3.77
2023-02-11T23:49:00.995Z,3.33
2023-02-11T23:51:28.962Z,3.60
2023-02-11T23:53:57.098Z,2.80
2023-02-11T23:56:26.454Z,3.20
2023-02-11T23:58:58.375Z,2.67
